createdAt,value
2019-02-12T00:00:06.163Z,103320.19
2019-02-12T00:02:39.469Z,103322.70
2019-02-12T00:05:14.120Z,103319.34
2019-02-12T00:07:45.376Z,103315.14
2019-02-12T00:10:15.940Z,103315.50
2019-02-12T00:12:46.298Z,103317.16
2019-02-12T00:15:17.718Z,103310.42
2019-02-12T00:17:48.264Z,103308.23
2019-02-12T00:20:18.557Z,103315.12
2019-02-12T00:22:53.621Z,103310.09
2019-02-12T00:25:23.490Z,103315.80
2019-02-12T00:27:57.512Z,103319.52
2019-02-12T00:30:27.123Z,103333.62
2019-02-12T00:33:00.569Z,103326.56
2019-02-12T00:35:32.139Z,103328.42
2019-02-12T00:38:01.462Z,103324.05
2019-02-12T00:40:33.491Z,103320.17
2019-02-12T00:43:04.288Z,103320.17
2019-02-12T00:45:36.160Z,103330.59
2019-02-12T00:48:05.459Z,103325.20
2019-02-12T00:50:36.426Z,103325.38
2019-02-12T00:53:06.483Z,103333.30
2019-02-12T00:55:36.686Z,103336.47
2019-02-12T00:58:11.114Z,103330.59
2019-02-12T01:00:41.644Z,103325.53
2019-02-12T01:03:11.916Z,103328.22
2019-02-12T01:05:42.261Z,103331.92
2019-02-12T01:08:19.575Z,103321.84
2019-02-12T01:10:51.951Z,103324.53
2019-02-12T01:13:25.817Z,103329.58
2019-02-12T01:15:57.321Z,103322.67
2019-02-12T01:18:27.429Z,103319.80
2019-02-12T01:20:59.626Z,103321.31
2019-02-12T01:23:30.893Z,103323.16
2019-02-12T01:26:01.489Z,103317.43
2019-02-12T01:28:32.513Z,103321.82
2019-02-12T01:31:06.194Z,103311.06
2019-02-12T01:33:35.307Z,103310.04
2019-02-12T01:36:08.255Z,103309.05
2019-02-12T01:38:44.219Z,103305.36
2019-02-12T01:43:54.154Z,103309.03
2019-02-12T01:46:24.141Z,103305.33
2019-02-12T01:48:55.444Z,103301.29
2019-02-12T01:51:34.786Z,103293.54
2019-02-12T01:53:58.509Z,103289.50
2019-02-12T01:56:30.780Z,103281.74
2019-02-12T01:59:02.134Z,103281.42
2019-02-12T02:01:31.207Z,103280.41
2019-02-12T02:04:01.535Z,103276.06
2019-02-12T02:06:32.733Z,103284.64
2019-02-12T02:09:04.620Z,103278.73
2019-02-12T02:11:33.959Z,103279.75
2019-02-12T02:14:05.294Z,103286.46
2019-02-12T02:16:41.023Z,103288.80
2019-02-12T02:19:11.370Z,103295.34
2019-02-12T02:21:44.144Z,103285.27
2019-02-12T02:24:24.687Z,103278.05
2019-02-12T02:26:54.244Z,103270.66
2019-02-12T02:29:23.811Z,103279.05
2019-02-12T02:31:55.698Z,103277.71
2019-02-12T02:34:26.260Z,103287.61
2019-02-12T02:36:57.565Z,103271.97
2019-02-12T02:39:27.279Z,103275.98
2019-02-12T02:41:56.374Z,103279.67
2019-02-12T02:44:28.028Z,103279.69
2019-02-12T02:49:42.303Z,103279.38
2019-02-12T02:52:13.362Z,103282.58
2019-02-12T02:54:48.572Z,103280.55
2019-02-12T02:57:17.691Z,103274.81
2019-02-12T02:59:50.570Z,103265.55
2019-02-12T03:02:21.322Z,103258.14
2019-02-12T03:04:51.182Z,103264.02
2019-02-12T03:07:24.806Z,103268.56
2019-02-12T03:09:58.193Z,103264.03
2019-02-12T03:12:28.322Z,103263.86
2019-02-12T03:14:59.364Z,103259.16
2019-02-12T03:17:33.642Z,103262.21
2019-02-12T03:20:03.902Z,103260.36
2019-02-12T03:22:40.108Z,103259.70
2019-02-12T03:25:11.743Z,103261.70
2019-02-12T03:27:42.176Z,103272.46
2019-02-12T03:30:13.932Z,103267.94
2019-02-12T03:32:45.620Z,103261.53
2019-02-12T03:35:20.432Z,103265.91
2019-02-12T03:37:53.006Z,103268.96
2019-02-12T03:40:27.696Z,103276.38
2019-02-12T03:43:01.195Z,103274.85
2019-02-12T03:45:34.365Z,103267.94
2019-02-12T03:48:05.082Z,103278.03
2019-02-12T03:50:37.703Z,103265.59
2019-02-12T03:53:09.071Z,103261.53
2019-02-12T03:55:40.490Z,103261.17
2019-02-12T03:58:13.708Z,103272.61
2019-02-12T04:00:47.784Z,103268.41
2019-02-12T04:03:17.800Z,103268.55
2019-02-12T04:05:49.538Z,103258.16
2019-02-12T04:08:23.846Z,103255.47
2019-02-12T04:10:58.062Z,103267.08
2019-02-12T04:13:32.722Z,103272.59
2019-02-12T04:16:02.539Z,103279.97
2019-02-12T04:18:34.359Z,103279.15
2019-02-12T04:21:10.019Z,103275.78
2019-02-12T04:23:42.977Z,103267.21
2019-02-12T04:26:12.767Z,103272.28
2019-02-12T04:28:47.679Z,103279.33
2019-02-12T04:31:18.741Z,103281.19
2019-02-12T04:33:51.845Z,103280.67
2019-02-12T04:36:26.264Z,103279.17
2019-02-12T04:39:00.712Z,103269.59
2019-02-12T04:41:30.663Z,103266.52
2019-02-12T04:44:01.583Z,103265.50
2019-02-12T04:46:32.907Z,103268.85
2019-02-12T04:49:04.845Z,103276.18
2019-02-12T04:51:34.894Z,103269.60
2019-02-12T04:54:06.014Z,103275.50
2019-02-12T04:56:36.708Z,103267.65
2019-02-12T04:59:08.099Z,103271.25
2019-02-12T05:01:37.723Z,103275.85
2019-02-12T05:04:09.927Z,103278.06
2019-02-12T05:06:39.767Z,103279.45
2019-02-12T05:09:19.835Z,103281.48
2019-02-12T05:11:52.993Z,103275.43
2019-02-12T05:14:24.603Z,103279.16
2019-02-12T05:16:54.270Z,103280.48
2019-02-12T05:19:26.251Z,103278.13
2019-02-12T05:21:56.086Z,103278.11
2019-02-12T05:24:29.391Z,103282.98
2019-02-12T05:27:06.493Z,103277.11
2019-02-12T05:29:36.032Z,103275.59
2019-02-12T05:32:05.552Z,103279.98
2019-02-12T05:34:35.941Z,103278.64
2019-02-12T05:39:41.759Z,103278.12
2019-02-12T05:42:12.443Z,103269.88
2019-02-12T05:44:41.539Z,103267.36
2019-02-12T05:47:13.738Z,103268.70
2019-02-12T05:49:46.855Z,103269.70
2019-02-12T05:52:15.886Z,103272.73
2019-02-12T05:54:45.698Z,103270.05
2019-02-12T05:57:16.799Z,103265.66
2019-02-12T05:59:48.704Z,103266.83
2019-02-12T06:02:20.380Z,103268.35
2019-02-12T06:04:49.408Z,103266.66
2019-02-12T06:07:18.851Z,103279.45
2019-02-12T06:09:50.515Z,103265.62
2019-02-12T06:12:23.715Z,103261.77
2019-02-12T06:14:59.166Z,103252.47
2019-02-12T06:17:29.413Z,103254.49
2019-02-12T06:19:58.483Z,103252.97
2019-02-12T06:22:28.405Z,103256.51
2019-02-12T06:25:00.811Z,103249.59
2019-02-12T06:27:30.610Z,103256.78
2019-02-12T06:30:00.866Z,103254.25
2019-02-12T06:32:30.529Z,103252.05
2019-02-12T06:35:01.153Z,103251.00
2019-02-12T06:37:30.877Z,103250.14
2019-02-12T06:40:00.874Z,103249.64
2019-02-12T06:42:31.742Z,103249.09
2019-02-12T06:45:03.547Z,103249.59
2019-02-12T06:47:33.739Z,103247.73
2019-02-12T06:50:05.059Z,103252.95
2019-02-12T06:52:38.627Z,103246.57
2019-02-12T06:55:11.444Z,103253.81
2019-02-12T06:57:42.588Z,103253.31
2019-02-12T07:00:13.610Z,103261.54
2019-02-12T07:02:54.581Z,103257.17
2019-02-12T07:05:29.510Z,103260.72
2019-02-12T07:08:10.255Z,103256.67
2019-02-12T07:10:43.110Z,103256.33
2019-02-12T07:16:25.471Z,103263.43
2019-02-12T07:19:42.979Z,103256.34
2019-02-12T07:22:53.898Z,103264.28
2019-02-12T07:25:51.366Z,103257.36
2019-02-12T07:28:45.431Z,103263.75
2019-02-12T07:32:28.271Z,103264.78
2019-02-12T07:40:08.577Z,103269.15
2019-02-12T07:43:07.127Z,103269.15
2019-02-12T07:45:48.984Z,103276.91
2019-02-12T07:49:02.030Z,103277.90
2019-02-12T07:51:54.365Z,103269.12
2019-02-12T07:54:45.747Z,103271.63
2019-02-12T07:57:38.029Z,103266.36
2019-02-12T08:00:54.894Z,103266.03
2019-02-12T08:03:56.230Z,103264.50
2019-02-12T08:06:46.371Z,103261.61
2019-02-12T08:09:28.200Z,103258.34
2019-02-12T08:14:15.814Z,103265.88
2019-02-12T08:16:56.398Z,103265.24
2019-02-12T08:20:46.252Z,103269.03
2019-02-12T08:23:58.086Z,103260.22
2019-02-12T08:27:15.889Z,103265.91
2019-02-12T08:30:00.418Z,103269.78
2019-02-12T08:33:18.986Z,103269.76
2019-02-12T08:36:01.054Z,103260.78
2019-02-12T08:42:53.298Z,103259.41
2019-02-12T08:45:39.203Z,103255.39
2019-02-12T08:49:50.727Z,103252.41
2019-02-12T08:56:48.990Z,103265.62
2019-02-12T08:59:30.892Z,103271.40
2019-02-12T09:02:10.629Z,103271.05
2019-02-12T09:04:52.850Z,103273.72
2019-02-12T09:07:53.480Z,103272.17
2019-02-12T09:11:01.618Z,103274.31
2019-02-12T09:13:57.505Z,103275.58
2019-02-12T09:16:45.951Z,103272.96
2019-02-12T09:19:29.282Z,103272.03
2019-02-12T09:25:16.561Z,103271.30
2019-02-12T09:28:09.269Z,103269.44
2019-02-12T09:30:54.802Z,103273.91
2019-02-12T09:33:40.268Z,103275.72
2019-02-12T09:37:23.152Z,103274.27
2019-02-12T09:40:04.386Z,103276.85
2019-02-12T09:42:44.951Z,103272.24
2019-02-12T09:45:45.248Z,103273.20
2019-02-12T09:48:44.292Z,103267.55
2019-02-12T09:51:27.957Z,103264.08
2019-02-12T09:54:13.743Z,103266.84
2019-02-12T09:57:09.207Z,103262.03
2019-02-12T09:59:50.764Z,103265.49
2019-02-12T10:02:30.829Z,103264.39
2019-02-12T10:07:14.642Z,103270.80
2019-02-12T10:10:15.291Z,103270.66
2019-02-12T10:13:03.630Z,103273.30
2019-02-12T10:19:29.422Z,103284.92
2019-02-12T10:22:34.473Z,103284.77
2019-02-12T10:25:40.006Z,103285.66
2019-02-12T10:28:21.393Z,103282.83
2019-02-12T10:31:17.378Z,103286.63
2019-02-12T10:33:48.926Z,103282.62
2019-02-12T10:36:18.645Z,103287.64
2019-02-12T10:38:49.740Z,103293.20
2019-02-12T10:41:19.637Z,103295.65
2019-02-12T10:43:49.811Z,103288.39
2019-02-12T10:46:19.883Z,103288.26
2019-02-12T10:48:49.677Z,103294.42
2019-02-12T10:51:22.300Z,103295.20
2019-02-12T10:53:52.546Z,103296.25
2019-02-12T10:56:23.463Z,103297.03
2019-02-12T10:58:54.535Z,103298.10
2019-02-12T11:02:27.514Z,103292.06
2019-02-12T11:04:58.747Z,103296.91
2019-02-12T11:07:32.500Z,103299.98
2019-02-12T11:10:02.465Z,103301.86
2019-02-12T11:12:32.198Z,103307.14
2019-02-12T11:15:07.127Z,103304.87
2019-02-12T11:17:37.654Z,103310.45
2019-02-12T11:20:10.627Z,103318.81
2019-02-12T11:22:42.434Z,103310.92
2019-02-12T11:25:11.683Z,103313.30
2019-02-12T11:27:59.867Z,103310.92
2019-02-12T11:30:32.787Z,103311.55
2019-02-12T11:33:11.371Z,103311.02
2019-02-12T11:35:41.196Z,103309.27
2019-02-12T11:38:18.243Z,103300.49
2019-02-12T11:40:59.621Z,103304.14
2019-02-12T11:43:34.061Z,103310.55
2019-02-12T11:46:07.695Z,103310.86
2019-02-12T11:48:44.523Z,103304.06
2019-02-12T11:51:15.576Z,103307.72
2019-02-12T11:53:47.258Z,103305.97
2019-02-12T11:56:19.774Z,103315.14
2019-02-12T11:58:55.774Z,103309.08
2019-02-12T12:01:48.831Z,103310.77
2019-02-12T12:04:18.959Z,103304.40
2019-02-12T12:06:49.611Z,103308.90
2019-02-12T12:09:24.897Z,103301.27
2019-02-12T12:11:55.256Z,103290.18
2019-02-12T12:14:25.769Z,103293.23
2019-02-12T12:16:56.931Z,103298.24
2019-02-12T12:19:26.566Z,103295.95
2019-02-12T12:21:56.499Z,103288.01
2019-02-12T12:24:51.286Z,103287.10
2019-02-12T12:27:40.695Z,103285.62
2019-02-12T12:30:10.506Z,103291.08
2019-02-12T12:32:40.944Z,103288.36
2019-02-12T12:35:10.591Z,103285.75
2019-02-12T12:37:42.792Z,103286.06
2019-02-12T12:40:14.813Z,103294.21
2019-02-12T12:42:44.010Z,103283.85
2019-02-12T12:45:13.273Z,103278.75
2019-02-12T12:47:48.112Z,103273.09
2019-02-12T12:50:21.366Z,103272.30
2019-02-12T12:55:33.355Z,103275.01
2019-02-12T13:00:51.617Z,103277.94
2019-02-12T13:03:25.515Z,103279.09
2019-02-12T13:08:32.792Z,103270.73
2019-02-12T13:11:04.396Z,103276.68
2019-02-12T13:13:34.075Z,103277.52
2019-02-12T13:16:03.511Z,103273.11
2019-02-12T13:18:32.673Z,103269.47
2019-02-12T13:21:02.971Z,103281.19
2019-02-12T13:23:33.732Z,103282.76
2019-02-12T13:26:07.431Z,103286.69
2019-02-12T13:28:39.206Z,103289.84
2019-02-12T13:31:08.931Z,103290.23
2019-02-12T13:33:49.310Z,103284.16
2019-02-12T13:36:19.155Z,103283.64
2019-02-12T13:38:48.746Z,103279.91
2019-02-12T13:41:19.255Z,103282.19
2019-02-12T13:43:53.756Z,103281.91
2019-02-12T13:46:24.984Z,103282.94
2019-02-12T13:48:55.439Z,103281.58
2019-02-12T13:51:25.911Z,103285.66
2019-02-12T13:54:02.542Z,103283.13
2019-02-12T13:56:34.855Z,103284.19
2019-02-12T13:59:04.355Z,103295.72
2019-02-12T14:01:34.946Z,103285.84
2019-02-12T14:04:06.252Z,103283.79
2019-02-12T14:06:36.206Z,103288.71
2019-02-12T14:09:10.113Z,103287.14
2019-02-12T14:11:44.374Z,103286.41
2019-02-12T14:14:23.357Z,103292.15
2019-02-12T14:17:01.484Z,103279.91
2019-02-12T14:19:36.581Z,103280.55
2019-02-12T14:22:08.538Z,103278.97
2019-02-12T14:24:42.005Z,103280.45
2019-02-12T14:27:16.141Z,103278.66
2019-02-12T14:29:48.795Z,103280.98
2019-02-12T14:32:21.488Z,103270.91
2019-02-12T14:34:52.991Z,103273.75
2019-02-12T14:37:28.766Z,103274.59
2019-02-12T14:40:17.817Z,103272.39
2019-02-12T14:42:54.792Z,103275.41
2019-02-12T14:45:31.777Z,103268.31
2019-02-12T14:48:07.481Z,103265.16
2019-02-12T14:50:40.519Z,103262.77
2019-02-12T14:53:18.523Z,103261.48
2019-02-12T14:55:50.145Z,103260.45
2019-02-12T14:58:22.520Z,103255.97
2019-02-12T15:00:53.246Z,103260.78
2019-02-12T15:03:29.752Z,103262.14
2019-02-12T15:08:42.656Z,103262.14
2019-02-12T15:11:14.818Z,103262.44
2019-02-12T15:13:48.389Z,103261.63
2019-02-12T15:16:20.498Z,103262.35
2019-02-12T15:18:53.269Z,103268.61
2019-02-12T15:21:27.735Z,103263.80
2019-02-12T15:24:11.122Z,103265.59
2019-02-12T15:26:47.025Z,103268.19
2019-02-12T15:29:18.811Z,103274.48
2019-02-12T15:31:53.155Z,103265.39
2019-02-12T15:34:31.260Z,103274.28
2019-02-12T15:37:05.215Z,103270.50
2019-02-12T15:39:37.009Z,103264.24
2019-02-12T15:42:06.703Z,103262.89
2019-02-12T15:44:39.290Z,103264.76
2019-02-12T15:47:09.705Z,103279.09
2019-02-12T15:49:42.058Z,103274.16
2019-02-12T15:52:13.001Z,103267.36
2019-02-12T15:54:46.083Z,103268.20
2019-02-12T15:57:27.650Z,103266.63
2019-02-12T15:59:57.032Z,103270.28
2019-02-12T16:02:33.944Z,103272.81
2019-02-12T16:05:03.612Z,103268.73
2019-02-12T16:07:42.636Z,103264.33
2019-02-12T16:10:14.762Z,103259.41
2019-02-12T16:12:48.651Z,103261.61
2019-02-12T16:15:30.040Z,103270.91
2019-02-12T16:18:02.624Z,103265.80
2019-02-12T16:20:44.367Z,103270.09
2019-02-12T16:23:22.681Z,103274.48
2019-02-12T16:26:04.155Z,103276.68
2019-02-12T16:28:34.917Z,103273.12
2019-02-12T16:31:04.702Z,103275.84
2019-02-12T16:33:39.831Z,103274.58
2019-02-12T16:36:09.964Z,103278.66
2019-02-12T16:38:42.605Z,103278.36
2019-02-12T16:41:12.548Z,103275.85
2019-02-12T16:43:44.004Z,103280.74
2019-02-12T16:46:19.011Z,103277.72
2019-02-12T16:48:50.024Z,103284.01
2019-02-12T16:51:29.705Z,103269.87
2019-02-12T16:53:59.252Z,103274.49
2019-02-12T16:56:34.327Z,103268.20
2019-02-12T16:59:08.803Z,103269.27
2019-02-12T17:01:44.802Z,103274.37
2019-02-12T17:04:22.580Z,103264.86
2019-02-12T17:06:53.669Z,103267.06
2019-02-12T17:09:22.901Z,103267.06
2019-02-12T17:11:54.459Z,103269.56
2019-02-12T17:14:24.763Z,103266.73
2019-02-12T17:16:57.973Z,103270.81
2019-02-12T17:19:29.403Z,103271.02
2019-02-12T17:22:01.978Z,103268.64
2019-02-12T17:27:09.701Z,103274.48
2019-02-12T17:29:48.115Z,103282.84
2019-02-12T17:32:18.869Z,103285.48
2019-02-12T17:34:51.108Z,103283.48
2019-02-12T17:37:22.474Z,103288.48
2019-02-12T17:39:53.059Z,103287.92
2019-02-12T17:42:24.733Z,103286.90
2019-02-12T17:44:59.568Z,103282.83
2019-02-12T17:47:39.194Z,103279.59
2019-02-12T17:50:11.261Z,103284.19
2019-02-12T17:52:44.398Z,103288.27
2019-02-12T17:55:14.813Z,103283.85
2019-02-12T17:57:49.532Z,103280.32
2019-02-12T18:00:27.216Z,103285.75
2019-02-12T18:02:57.626Z,103290.34
2019-02-12T18:05:27.320Z,103296.81
2019-02-12T18:07:59.022Z,103296.00
2019-02-12T18:10:33.564Z,103304.87
2019-02-12T18:13:03.659Z,103300.47
2019-02-12T18:15:36.596Z,103306.12
2019-02-12T18:18:06.022Z,103312.92
2019-02-12T18:20:42.579Z,103316.70
2019-02-12T18:23:13.357Z,103315.34
2019-02-12T18:25:46.761Z,103311.89
2019-02-12T18:28:21.486Z,103310.20
2019-02-12T18:30:57.936Z,103309.90
2019-02-12T18:33:30.422Z,103308.54
2019-02-12T18:36:06.682Z,103310.75
2019-02-12T18:38:47.824Z,103313.12
2019-02-12T18:41:20.365Z,103313.34
2019-02-12T18:43:53.154Z,103317.42
2019-02-12T18:46:25.580Z,103314.37
2019-02-12T18:48:55.931Z,103312.70
2019-02-12T18:54:08.273Z,103311.05
2019-02-12T18:56:42.301Z,103306.42
2019-02-12T18:59:14.203Z,103301.72
2019-02-12T19:01:52.038Z,103303.62
2019-02-12T19:04:28.911Z,103311.77
2019-02-12T19:07:03.309Z,103314.16
2019-02-12T19:09:36.902Z,103315.22
2019-02-12T19:12:07.291Z,103315.09
2019-02-12T19:14:37.601Z,103318.54
2019-02-12T19:17:14.417Z,103311.23
2019-02-12T19:19:48.482Z,103318.75
2019-02-12T19:22:20.845Z,103321.47
2019-02-12T19:24:54.597Z,103318.75
2019-02-12T19:27:26.490Z,103320.32
2019-02-12T19:29:58.636Z,103318.11
2019-02-12T19:32:30.690Z,103320.83
2019-02-12T19:34:59.741Z,103315.09
2019-02-12T19:37:32.881Z,103319.69
2019-02-12T19:40:07.610Z,103311.74
2019-02-12T19:42:47.954Z,103313.10
2019-02-12T19:45:20.437Z,103312.26
2019-02-12T19:47:54.061Z,103310.08
2019-02-12T19:50:26.150Z,103304.31
2019-02-12T19:52:58.164Z,103303.80
2019-02-12T19:55:29.987Z,103304.95
2019-02-12T19:58:05.323Z,103304.65
2019-02-12T20:00:37.931Z,103310.08
2019-02-12T20:03:07.849Z,103307.03
2019-02-12T20:05:43.438Z,103310.80
2019-02-12T20:08:15.363Z,103314.55
2019-02-12T20:10:44.814Z,103306.09
2019-02-12T20:13:15.131Z,103308.81
2019-02-12T20:15:49.515Z,103303.05
2019-02-12T20:18:23.252Z,103310.17
2019-02-12T20:20:55.858Z,103307.45
2019-02-12T20:23:27.932Z,103305.38
2019-02-12T20:26:01.285Z,103307.87
2019-02-12T20:28:32.417Z,103305.46
2019-02-12T20:31:04.870Z,103297.31
2019-02-12T20:33:36.557Z,103310.38
2019-02-12T20:36:06.694Z,103301.09
2019-02-12T20:38:39.011Z,103306.73
2019-02-12T20:43:47.809Z,103307.45
2019-02-12T20:46:22.432Z,103312.89
2019-02-12T20:48:52.613Z,103307.13
2019-02-12T20:51:23.004Z,103308.48
2019-02-12T20:53:54.752Z,103311.20
2019-02-12T20:56:24.539Z,103305.97
2019-02-12T20:58:55.626Z,103308.90
2019-02-12T21:01:25.261Z,103304.52
2019-02-12T21:03:57.808Z,103310.98
2019-02-12T21:06:30.378Z,103309.32
2019-02-12T21:09:01.181Z,103309.32
2019-02-12T21:11:41.790Z,103306.61
2019-02-12T21:14:17.307Z,103301.69
2019-02-12T21:16:49.659Z,103300.02
2019-02-12T21:19:25.326Z,103298.12
2019-02-12T21:21:56.000Z,103305.45
2019-02-12T21:24:34.395Z,103303.25
2019-02-12T21:27:05.546Z,103307.12
2019-02-12T21:29:40.832Z,103313.61
2019-02-12T21:32:16.551Z,103313.61
2019-02-12T21:34:46.352Z,103310.05
2019-02-12T21:37:19.740Z,103307.63
2019-02-12T21:39:49.417Z,103307.84
2019-02-12T21:42:26.438Z,103305.63
2019-02-12T21:44:55.595Z,103299.39
2019-02-12T21:47:27.431Z,103297.70
2019-02-12T21:49:59.400Z,103303.98
2019-02-12T21:55:12.341Z,103305.34
2019-02-12T21:57:41.730Z,103303.47
2019-02-12T22:00:14.847Z,103309.70
2019-02-12T22:02:49.865Z,103316.50
2019-02-12T22:05:30.286Z,103307.53
2019-02-12T22:08:01.395Z,103306.69
2019-02-12T22:10:34.869Z,103309.92
2019-02-12T22:13:07.901Z,103311.79
2019-02-12T22:15:41.426Z,103308.27
2019-02-12T22:18:15.919Z,103304.19
2019-02-12T22:20:47.365Z,103301.13
2019-02-12T22:23:19.104Z,103298.42
2019-02-12T22:25:52.207Z,103300.83
2019-02-12T22:28:23.682Z,103300.83
2019-02-12T22:30:58.796Z,103298.33
2019-02-12T22:33:35.689Z,103295.61
2019-02-12T22:36:16.138Z,103294.97
2019-02-12T22:38:47.143Z,103297.69
2019-02-12T22:41:23.715Z,103299.05
2019-02-12T22:43:59.089Z,103296.00
2019-02-12T22:46:31.477Z,103297.05
2019-02-12T22:49:03.623Z,103298.41
2019-02-12T22:51:39.579Z,103296.20
2019-02-12T22:54:11.190Z,103296.55
2019-02-12T22:56:48.831Z,103296.20
2019-02-12T22:59:24.122Z,103297.56
2019-02-12T23:04:33.028Z,103303.20
2019-02-12T23:07:10.469Z,103296.11
2019-02-12T23:09:42.051Z,103292.04
2019-02-12T23:12:16.129Z,103296.42
2019-02-12T23:14:49.395Z,103293.06
2019-02-12T23:17:20.074Z,103290.34
2019-02-12T23:20:12.623Z,103290.56
2019-02-12T23:22:42.085Z,103294.63
2019-02-12T23:25:14.446Z,103297.86
2019-02-12T23:27:47.870Z,103289.72
2019-02-12T23:30:29.551Z,103287.00
2019-02-12T23:33:02.339Z,103288.36
2019-02-12T23:35:37.095Z,103281.26
2019-02-12T23:38:07.944Z,103275.83
2019-02-12T23:40:38.465Z,103275.31
2019-02-12T23:43:08.997Z,103277.70
2019-02-12T23:45:40.751Z,103275.50
2019-02-12T23:48:12.311Z,103282.62
2019-02-12T23:50:46.672Z,103280.92
2019-02-12T23:53:20.126Z,103275.83
2019-02-12T23:55:51.568Z,103278.84
2019-02-12T23:58:25.991Z,103288.05
